sensor_id;sensor_type;location;lat;lon;timestamp;P1;durP1;ratioP1;P2;durP2;ratioP2
13435;SDS011;6790;49.520;8.504;2023-03-30T00:01:01;7.43;;;2.87;;
13435;SDS011;6790;49.520;8.504;2023-03-30T00:03:29;4.67;;;2.50;;
13435;SDS011;6790;49.520;8.504;2023-03-30T00:05:55;7.47;;;2.40;;
13435;SDS011;6790;49.520;8.504;2023-03-30T00:08:21;5.57;;;2.40;;
13435;SDS011;6790;49.520;8.504;2023-03-30T00:10:52;4.97;;;2.30;;
13435;SDS011;6790;49.520;8.504;2023-03-30T00:13:27;4.20;;;2.67;;
13435;SDS011;6790;49.520;8.504;2023-03-30T00:15:54;5.17;;;2.50;;
13435;SDS011;6790;49.520;8.504;2023-03-30T00:18:19;7.20;;;2.50;;
13435;SDS011;6790;49.520;8.504;2023-03-30T00:20:48;5.10;;;2.77;;
13435;SDS011;6790;49.520;8.504;2023-03-30T00:23:15;4.13;;;2.37;;
13435;SDS011;6790;49.520;8.504;2023-03-30T00:25:42;3.47;;;2.37;;
13435;SDS011;6790;49.520;8.504;2023-03-30T00:28:08;10.07;;;2.77;;
13435;SDS011;6790;49.520;8.504;2023-03-30T00:30:33;6.20;;;2.53;;
13435;SDS011;6790;49.520;8.504;2023-03-30T00:33:00;3.80;;;2.50;;
13435;SDS011;6790;49.520;8.504;2023-03-30T00:35:27;10.30;;;2.80;;
13435;SDS011;6790;49.520;8.504;2023-03-30T00:37:54;8.23;;;2.60;;
13435;SDS011;6790;49.520;8.504;2023-03-30T00:40:28;6.20;;;2.80;;
13435;SDS011;6790;49.520;8.504;2023-03-30T00:42:57;7.27;;;2.80;;
13435;SDS011;6790;49.520;8.504;2023-03-30T00:45:33;5.40;;;2.80;;
13435;SDS011;6790;49.520;8.504;2023-03-30T00:50:39;3.00;;;2.30;;
13435;SDS011;6790;49.520;8.504;2023-03-30T00:53:12;7.07;;;2.90;;
13435;SDS011;6790;49.520;8.504;2023-03-30T00:55:58;6.60;;;2.60;;
13435;SDS011;6790;49.520;8.504;2023-03-30T00:58:25;4.27;;;2.50;;
13435;SDS011;6790;49.520;8.504;2023-03-30T01:00:52;5.63;;;2.67;;
13435;SDS011;6790;49.520;8.504;2023-03-30T01:05:56;3.93;;;2.20;;
13435;SDS011;6790;49.520;8.504;2023-03-30T01:08:26;11.17;;;3.20;;
13435;SDS011;6790;49.520;8.504;2023-03-30T01:11:00;5.20;;;2.60;;
13435;SDS011;6790;49.520;8.504;2023-03-30T01:13:27;7.83;;;3.13;;
13435;SDS011;6790;49.520;8.504;2023-03-30T01:42:38;4.23;;;2.60;;
13435;SDS011;6790;49.520;8.504;2023-03-30T01:45:29;4.87;;;2.63;;
13435;SDS011;6790;49.520;8.504;2023-03-30T01:51:11;4.50;;;2.50;;
13435;SDS011;6790;49.520;8.504;2023-03-30T01:53:50;7.77;;;2.90;;
13435;SDS011;6790;49.520;8.504;2023-03-30T01:56:31;8.37;;;2.40;;
13435;SDS011;6790;49.520;8.504;2023-03-30T02:01:51;6.27;;;2.63;;
13435;SDS011;6790;49.520;8.504;2023-03-30T02:04:24;4.07;;;2.50;;
13435;SDS011;6790;49.520;8.504;2023-03-30T02:06:53;5.47;;;3.00;;
13435;SDS011;6790;49.520;8.504;2023-03-30T02:09:23;6.83;;;3.00;;
13435;SDS011;6790;49.520;8.504;2023-03-30T02:11:51;8.90;;;2.90;;
13435;SDS011;6790;49.520;8.504;2023-03-30T02:14:18;12.80;;;3.27;;
13435;SDS011;6790;49.520;8.504;2023-03-30T02:16:56;6.77;;;2.80;;
13435;SDS011;6790;49.520;8.504;2023-03-30T02:19:31;4.90;;;2.60;;
13435;SDS011;6790;49.520;8.504;2023-03-30T02:21:57;13.33;;;3.30;;
13435;SDS011;6790;49.520;8.504;2023-03-30T02:24:25;5.33;;;2.77;;
13435;SDS011;6790;49.520;8.504;2023-03-30T02:26:54;4.50;;;2.57;;
13435;SDS011;6790;49.520;8.504;2023-03-30T02:29:20;8.40;;;2.90;;
13435;SDS011;6790;49.520;8.504;2023-03-30T02:31:50;10.47;;;3.20;;
13435;SDS011;6790;49.520;8.504;2023-03-30T02:37:23;6.03;;;3.07;;
13435;SDS011;6790;49.520;8.504;2023-03-30T02:43:32;5.63;;;2.37;;
13435;SDS011;6790;49.520;8.504;2023-03-30T03:00:49;11.53;;;2.60;;
13435;SDS011;6790;49.520;8.504;2023-03-30T03:03:22;9.17;;;3.00;;
13435;SDS011;6790;49.520;8.504;2023-03-30T03:05:56;9.60;;;2.70;;
13435;SDS011;6790;49.520;8.504;2023-03-30T03:08:27;7.17;;;2.90;;
13435;SDS011;6790;49.520;8.504;2023-03-30T03:10:54;11.57;;;3.03;;
13435;SDS011;6790;49.520;8.504;2023-03-30T03:13:20;7.63;;;2.63;;
13435;SDS011;6790;49.520;8.504;2023-03-30T03:15:46;7.50;;;2.70;;
13435;SDS011;6790;49.520;8.504;2023-03-30T03:18:13;6.03;;;2.70;;
13435;SDS011;6790;49.520;8.504;2023-03-30T03:20:39;8.43;;;2.80;;
13435;SDS011;6790;49.520;8.504;2023-03-30T03:23:04;5.97;;;2.90;;
13435;SDS011;6790;49.520;8.504;2023-03-30T03:25:30;7.87;;;3.23;;
13435;SDS011;6790;49.520;8.504;2023-03-30T03:27:56;6.13;;;3.00;;
13435;SDS011;6790;49.520;8.504;2023-03-30T03:30:22;8.30;;;2.97;;
13435;SDS011;6790;49.520;8.504;2023-03-30T03:32:48;8.70;;;3.07;;
13435;SDS011;6790;49.520;8.504;2023-03-30T03:35:15;9.57;;;2.97;;
13435;SDS011;6790;49.520;8.504;2023-03-30T03:37:41;6.27;;;2.43;;
13435;SDS011;6790;49.520;8.504;2023-03-30T03:40:07;7.37;;;2.60;;
13435;SDS011;6790;49.520;8.504;2023-03-30T03:42:36;9.70;;;3.30;;
13435;SDS011;6790;49.520;8.504;2023-03-30T03:45:02;6.43;;;2.73;;
13435;SDS011;6790;49.520;8.504;2023-03-30T03:47:30;7.00;;;3.00;;
13435;SDS011;6790;49.520;8.504;2023-03-30T03:49:56;7.67;;;3.13;;
13435;SDS011;6790;49.520;8.504;2023-03-30T03:52:22;4.63;;;2.67;;
13435;SDS011;6790;49.520;8.504;2023-03-30T03:54:47;8.13;;;3.30;;
13435;SDS011;6790;49.520;8.504;2023-03-30T03:57:13;6.43;;;2.53;;
13435;SDS011;6790;49.520;8.504;2023-03-30T03:59:39;10.27;;;2.90;;
13435;SDS011;6790;49.520;8.504;2023-03-30T04:02:04;6.30;;;2.63;;
13435;SDS011;6790;49.520;8.504;2023-03-30T04:04:30;9.87;;;2.90;;
13435;SDS011;6790;49.520;8.504;2023-03-30T04:06:56;6.30;;;3.10;;
13435;SDS011;6790;49.520;8.504;2023-03-30T04:09:22;8.43;;;2.70;;
13435;SDS011;6790;49.520;8.504;2023-03-30T04:11:48;8.30;;;2.80;;
13435;SDS011;6790;49.520;8.504;2023-03-30T04:14:15;5.23;;;2.80;;
13435;SDS011;6790;49.520;8.504;2023-03-30T04:16:40;8.57;;;3.10;;
13435;SDS011;6790;49.520;8.504;2023-03-30T04:19:06;8.70;;;2.83;;
13435;SDS011;6790;49.520;8.504;2023-03-30T04:21:33;9.60;;;2.80;;
13435;SDS011;6790;49.520;8.504;2023-03-30T04:23:59;7.53;;;3.17;;
13435;SDS011;6790;49.520;8.504;2023-03-30T04:26:25;6.23;;;2.53;;
13435;SDS011;6790;49.520;8.504;2023-03-30T04:28:52;6.13;;;3.33;;
13435;SDS011;6790;49.520;8.504;2023-03-30T04:31:21;10.60;;;3.13;;
13435;SDS011;6790;49.520;8.504;2023-03-30T04:33:47;6.90;;;2.77;;
13435;SDS011;6790;49.520;8.504;2023-03-30T04:36:17;12.30;;;3.40;;
13435;SDS011;6790;49.520;8.504;2023-03-30T04:38:44;7.87;;;3.10;;
13435;SDS011;6790;49.520;8.504;2023-03-30T04:41:27;8.10;;;3.13;;
13435;SDS011;6790;49.520;8.504;2023-03-30T04:43:59;7.03;;;2.80;;
13435;SDS011;6790;49.520;8.504;2023-03-30T04:46:30;14.63;;;3.53;;
13435;SDS011;6790;49.520;8.504;2023-03-30T04:48:56;5.67;;;3.27;;
13435;SDS011;6790;49.520;8.504;2023-03-30T04:51:22;8.27;;;3.13;;
13435;SDS011;6790;49.520;8.504;2023-03-30T04:53:48;7.87;;;3.03;;
13435;SDS011;6790;49.520;8.504;2023-03-30T04:56:14;10.40;;;3.13;;
13435;SDS011;6790;49.520;8.504;2023-03-30T04:58:40;11.80;;;3.43;;
13435;SDS011;6790;49.520;8.504;2023-03-30T05:01:06;6.73;;;3.37;;
13435;SDS011;6790;49.520;8.504;2023-03-30T05:03:32;8.60;;;3.27;;
13435;SDS011;6790;49.520;8.504;2023-03-30T05:05:58;10.67;;;3.07;;
13435;SDS011;6790;49.520;8.504;2023-03-30T05:08:24;6.40;;;3.17;;
13435;SDS011;6790;49.520;8.504;2023-03-30T05:10:50;7.23;;;2.87;;
13435;SDS011;6790;49.520;8.504;2023-03-30T05:13:16;8.87;;;3.60;;
13435;SDS011;6790;49.520;8.504;2023-03-30T05:15:42;5.83;;;3.03;;
13435;SDS011;6790;49.520;8.504;2023-03-30T05:18:08;6.77;;;2.93;;
13435;SDS011;6790;49.520;8.504;2023-03-30T05:20:33;8.67;;;3.10;;
13435;SDS011;6790;49.520;8.504;2023-03-30T05:22:59;12.33;;;3.30;;
13435;SDS011;6790;49.520;8.504;2023-03-30T05:25:25;11.00;;;3.37;;
13435;SDS011;6790;49.520;8.504;2023-03-30T05:27:51;11.07;;;3.27;;
13435;SDS011;6790;49.520;8.504;2023-03-30T05:30:17;12.00;;;3.57;;
13435;SDS011;6790;49.520;8.504;2023-03-30T05:32:43;10.23;;;3.30;;
13435;SDS011;6790;49.520;8.504;2023-03-30T05:35:09;9.97;;;3.23;;
13435;SDS011;6790;49.520;8.504;2023-03-30T05:37:36;5.63;;;3.20;;
13435;SDS011;6790;49.520;8.504;2023-03-30T05:40:02;5.83;;;2.90;;
13435;SDS011;6790;49.520;8.504;2023-03-30T05:42:33;7.80;;;3.83;;
13435;SDS011;6790;49.520;8.504;2023-03-30T05:45:00;6.93;;;3.60;;
13435;SDS011;6790;49.520;8.504;2023-03-30T05:47:26;11.63;;;4.20;;
13435;SDS011;6790;49.520;8.504;2023-03-30T05:49:53;9.90;;;3.63;;
13435;SDS011;6790;49.520;8.504;2023-03-30T05:52:18;8.67;;;4.13;;
13435;SDS011;6790;49.520;8.504;2023-03-30T05:54:45;0.30;;;0.30;;
13435;SDS011;6790;49.520;8.504;2023-03-30T05:57:11;5.20;;;2.30;;
13435;SDS011;6790;49.520;8.504;2023-03-30T05:59:37;0.73;;;0.73;;
13435;SDS011;6790;49.520;8.504;2023-03-30T06:02:03;0.40;;;0.40;;
13435;SDS011;6790;49.520;8.504;2023-03-30T06:04:30;0.20;;;0.20;;
13435;SDS011;6790;49.520;8.504;2023-03-30T06:06:57;0.40;;;0.40;;
13435;SDS011;6790;49.520;8.504;2023-03-30T06:09:23;0.20;;;0.20;;
13435;SDS011;6790;49.520;8.504;2023-03-30T06:11:50;0.60;;;0.60;;
13435;SDS011;6790;49.520;8.504;2023-03-30T06:14:16;0.20;;;0.20;;
13435;SDS011;6790;49.520;8.504;2023-03-30T06:16:42;0.33;;;0.33;;
13435;SDS011;6790;49.520;8.504;2023-03-30T06:19:08;0.20;;;0.20;;
13435;SDS011;6790;49.520;8.504;2023-03-30T06:21:34;0.20;;;0.20;;
13435;SDS011;6790;49.520;8.504;2023-03-30T06:23:59;0.20;;;0.20;;
13435;SDS011;6790;49.520;8.504;2023-03-30T06:26:25;0.40;;;0.40;;
13435;SDS011;6790;49.520;8.504;2023-03-30T06:28:52;0.70;;;0.70;;
13435;SDS011;6790;49.520;8.504;2023-03-30T06:31:17;0.80;;;0.80;;
13435;SDS011;6790;49.520;8.504;2023-03-30T06:33:43;0.13;;;0.13;;
13435;SDS011;6790;49.520;8.504;2023-03-30T06:36:09;0.20;;;0.20;;
13435;SDS011;6790;49.520;8.504;2023-03-30T06:38:36;0.23;;;0.23;;
13435;SDS011;6790;49.520;8.504;2023-03-30T06:41:03;0.40;;;0.40;;
13435;SDS011;6790;49.520;8.504;2023-03-30T06:43:32;0.40;;;0.40;;
13435;SDS011;6790;49.520;8.504;2023-03-30T06:45:58;0.20;;;0.20;;
13435;SDS011;6790;49.520;8.504;2023-03-30T06:48:24;9.63;;;4.63;;
13435;SDS011;6790;49.520;8.504;2023-03-30T06:50:50;0.30;;;0.30;;
13435;SDS011;6790;49.520;8.504;2023-03-30T06:53:20;0.20;;;0.20;;
13435;SDS011;6790;49.520;8.504;2023-03-30T06:55:53;3.83;;;2.53;;
13435;SDS011;6790;49.520;8.504;2023-03-30T06:58:35;0.80;;;0.80;;
13435;SDS011;6790;49.520;8.504;2023-03-30T07:01:07;0.20;;;0.20;;
13435;SDS011;6790;49.520;8.504;2023-03-30T07:03:35;0.30;;;0.30;;
13435;SDS011;6790;49.520;8.504;2023-03-30T07:06:01;0.20;;;0.20;;
13435;SDS011;6790;49.520;8.504;2023-03-30T07:08:28;0.20;;;0.20;;
13435;SDS011;6790;49.520;8.504;2023-03-30T07:10:54;0.20;;;0.20;;
13435;SDS011;6790;49.520;8.504;2023-03-30T07:13:20;0.40;;;0.40;;
13435;SDS011;6790;49.520;8.504;2023-03-30T07:15:46;0.30;;;0.30;;
13435;SDS011;6790;49.520;8.504;2023-03-30T07:18:12;0.20;;;0.20;;
13435;SDS011;6790;49.520;8.504;2023-03-30T07:20:38;0.30;;;0.30;;
13435;SDS011;6790;49.520;8.504;2023-03-30T07:23:04;0.10;;;0.10;;
13435;SDS011;6790;49.520;8.504;2023-03-30T07:25:30;0.30;;;0.30;;
13435;SDS011;6790;49.520;8.504;2023-03-30T07:27:56;0.40;;;0.40;;
13435;SDS011;6790;49.520;8.504;2023-03-30T07:30:22;0.43;;;0.43;;
13435;SDS011;6790;49.520;8.504;2023-03-30T07:32:48;0.20;;;0.20;;
13435;SDS011;6790;49.520;8.504;2023-03-30T07:35:14;2.30;;;2.20;;
13435;SDS011;6790;49.520;8.504;2023-03-30T07:37:40;6.13;;;4.40;;
13435;SDS011;6790;49.520;8.504;2023-03-30T07:40:07;4.73;;;3.17;;
13435;SDS011;6790;49.520;8.504;2023-03-30T07:42:34;6.80;;;6.37;;
13435;SDS011;6790;49.520;8.504;2023-03-30T07:45:01;11.43;;;6.77;;
13435;SDS011;6790;49.520;8.504;2023-03-30T07:47:28;6.90;;;3.87;;
13435;SDS011;6790;49.520;8.504;2023-03-30T07:49:54;5.07;;;2.90;;
13435;SDS011;6790;49.520;8.504;2023-03-30T07:52:20;1.00;;;1.00;;
13435;SDS011;6790;49.520;8.504;2023-03-30T07:54:45;1.03;;;1.03;;
13435;SDS011;6790;49.520;8.504;2023-03-30T07:57:11;0.20;;;0.20;;
13435;SDS011;6790;49.520;8.504;2023-03-30T07:59:37;0.40;;;0.40;;
13435;SDS011;6790;49.520;8.504;2023-03-30T08:02:03;0.20;;;0.20;;
13435;SDS011;6790;49.520;8.504;2023-03-30T08:04:30;0.30;;;0.30;;
13435;SDS011;6790;49.520;8.504;2023-03-30T08:06:57;0.20;;;0.20;;
13435;SDS011;6790;49.520;8.504;2023-03-30T08:09:22;0.43;;;0.43;;
13435;SDS011;6790;49.520;8.504;2023-03-30T08:11:48;0.30;;;0.30;;
13435;SDS011;6790;49.520;8.504;2023-03-30T08:14:14;0.40;;;0.40;;
13435;SDS011;6790;49.520;8.504;2023-03-30T08:16:40;0.20;;;0.20;;
13435;SDS011;6790;49.520;8.504;2023-03-30T08:19:06;0.30;;;0.30;;
13435;SDS011;6790;49.520;8.504;2023-03-30T08:21:32;0.40;;;0.40;;
13435;SDS011;6790;49.520;8.504;2023-03-30T08:23:58;0.20;;;0.20;;
13435;SDS011;6790;49.520;8.504;2023-03-30T08:26:24;0.47;;;0.47;;
13435;SDS011;6790;49.520;8.504;2023-03-30T08:28:50;0.30;;;0.30;;
13435;SDS011;6790;49.520;8.504;2023-03-30T08:31:16;0.20;;;0.20;;
13435;SDS011;6790;49.520;8.504;2023-03-30T08:33:43;1.33;;;1.23;;
13435;SDS011;6790;49.520;8.504;2023-03-30T08:36:09;0.30;;;0.30;;
13435;SDS011;6790;49.520;8.504;2023-03-30T08:38:36;0.40;;;0.40;;
13435;SDS011;6790;49.520;8.504;2023-03-30T08:41:17;0.13;;;0.13;;
13435;SDS011;6790;49.520;8.504;2023-03-30T08:43:50;0.20;;;0.20;;
13435;SDS011;6790;49.520;8.504;2023-03-30T08:46:19;0.30;;;0.30;;
13435;SDS011;6790;49.520;8.504;2023-03-30T08:48:45;0.30;;;0.30;;
13435;SDS011;6790;49.520;8.504;2023-03-30T08:53:58;0.30;;;0.30;;
13435;SDS011;6790;49.520;8.504;2023-03-30T09:00:32;0.23;;;0.23;;
13435;SDS011;6790;49.520;8.504;2023-03-30T09:02:45;0.17;;;0.17;;
13435;SDS011;6790;49.520;8.504;2023-03-30T09:05:18;0.53;;;0.53;;
13435;SDS011;6790;49.520;8.504;2023-03-30T09:10:51;0.30;;;0.30;;
13435;SDS011;6790;49.520;8.504;2023-03-30T09:13:23;0.20;;;0.20;;
13435;SDS011;6790;49.520;8.504;2023-03-30T09:16:04;0.40;;;0.40;;
13435;SDS011;6790;49.520;8.504;2023-03-30T09:18:57;0.20;;;0.20;;
13435;SDS011;6790;49.520;8.504;2023-03-30T09:21:29;0.20;;;0.20;;
13435;SDS011;6790;49.520;8.504;2023-03-30T09:23:56;0.20;;;0.20;;
13435;SDS011;6790;49.520;8.504;2023-03-30T09:29:24;0.83;;;0.83;;
13435;SDS011;6790;49.520;8.504;2023-03-30T09:32:03;0.20;;;0.20;;
13435;SDS011;6790;49.520;8.504;2023-03-30T09:34:46;0.10;;;0.10;;
13435;SDS011;6790;49.520;8.504;2023-03-30T09:37:23;0.30;;;0.30;;
13435;SDS011;6790;49.520;8.504;2023-03-30T09:39:49;0.93;;;0.93;;
13435;SDS011;6790;49.520;8.504;2023-03-30T09:42:27;0.20;;;0.20;;
13435;SDS011;6790;49.520;8.504;2023-03-30T09:45:35;0.20;;;0.20;;
13435;SDS011;6790;49.520;8.504;2023-03-30T09:48:04;5.10;;;4.00;;
13435;SDS011;6790;49.520;8.504;2023-03-30T09:50:35;0.20;;;0.20;;
13435;SDS011;6790;49.520;8.504;2023-03-30T09:53:26;0.20;;;0.20;;
13435;SDS011;6790;49.520;8.504;2023-03-30T10:02:08;1.03;;;1.03;;
13435;SDS011;6790;49.520;8.504;2023-03-30T10:05:16;6.00;;;2.90;;
13435;SDS011;6790;49.520;8.504;2023-03-30T10:07:42;5.60;;;2.77;;
13435;SDS011;6790;49.520;8.504;2023-03-30T10:10:33;6.73;;;3.07;;
13435;SDS011;6790;49.520;8.504;2023-03-30T10:13:11;4.60;;;2.90;;
13435;SDS011;6790;49.520;8.504;2023-03-30T10:15:43;6.93;;;2.77;;
13435;SDS011;6790;49.520;8.504;2023-03-30T10:18:19;3.87;;;2.83;;
13435;SDS011;6790;49.520;8.504;2023-03-30T10:21:00;4.23;;;2.73;;
13435;SDS011;6790;49.520;8.504;2023-03-30T10:23:30;7.50;;;2.70;;
13435;SDS011;6790;49.520;8.504;2023-03-30T10:26:04;3.23;;;2.60;;
13435;SDS011;6790;49.520;8.504;2023-03-30T10:28:54;4.13;;;2.23;;
13435;SDS011;6790;49.520;8.504;2023-03-30T10:31:29;4.40;;;2.93;;
13435;SDS011;6790;49.520;8.504;2023-03-30T10:33:59;3.93;;;2.60;;
13435;SDS011;6790;49.520;8.504;2023-03-30T10:36:28;6.07;;;2.63;;
13435;SDS011;6790;49.520;8.504;2023-03-30T10:39:39;5.60;;;2.57;;
13435;SDS011;6790;49.520;8.504;2023-03-30T10:41:55;2.97;;;2.30;;
13435;SDS011;6790;49.520;8.504;2023-03-30T10:44:24;4.73;;;2.60;;
13435;SDS011;6790;49.520;8.504;2023-03-30T10:52:45;5.83;;;2.70;;
13435;SDS011;6790;49.520;8.504;2023-03-30T10:55:31;4.83;;;2.20;;
13435;SDS011;6790;49.520;8.504;2023-03-30T10:58:29;4.07;;;2.60;;
13435;SDS011;6790;49.520;8.504;2023-03-30T11:04:05;7.47;;;4.20;;
13435;SDS011;6790;49.520;8.504;2023-03-30T11:06:44;5.80;;;2.70;;
13435;SDS011;6790;49.520;8.504;2023-03-30T11:09:15;4.87;;;2.93;;
13435;SDS011;6790;49.520;8.504;2023-03-30T11:14:54;4.20;;;2.20;;
13435;SDS011;6790;49.520;8.504;2023-03-30T11:17:26;5.43;;;2.20;;
13435;SDS011;6790;49.520;8.504;2023-03-30T11:19:59;4.80;;;2.30;;
13435;SDS011;6790;49.520;8.504;2023-03-30T11:22:44;7.00;;;2.40;;
13435;SDS011;6790;49.520;8.504;2023-03-30T11:25:22;8.37;;;2.90;;
13435;SDS011;6790;49.520;8.504;2023-03-30T11:31:29;4.07;;;2.30;;
13435;SDS011;6790;49.520;8.504;2023-03-30T11:37:20;5.97;;;2.43;;
13435;SDS011;6790;49.520;8.504;2023-03-30T11:39:53;4.67;;;2.73;;
13435;SDS011;6790;49.520;8.504;2023-03-30T11:42:31;4.37;;;2.20;;
13435;SDS011;6790;49.520;8.504;2023-03-30T11:45:14;2.93;;;2.00;;
13435;SDS011;6790;49.520;8.504;2023-03-30T11:51:11;3.80;;;2.33;;
13435;SDS011;6790;49.520;8.504;2023-03-30T11:57:13;7.17;;;2.20;;
13435;SDS011;6790;49.520;8.504;2023-03-30T12:05:37;8.33;;;1.93;;
13435;SDS011;6790;49.520;8.504;2023-03-30T12:11:37;3.00;;;1.50;;
13435;SDS011;6790;49.520;8.504;2023-03-30T12:14:26;3.20;;;1.63;;
13435;SDS011;6790;49.520;8.504;2023-03-30T12:17:22;6.90;;;1.90;;
13435;SDS011;6790;49.520;8.504;2023-03-30T12:28:46;2.50;;;1.50;;
13435;SDS011;6790;49.520;8.504;2023-03-30T12:31:22;3.63;;;1.40;;
13435;SDS011;6790;49.520;8.504;2023-03-30T12:34:12;4.70;;;2.00;;
13435;SDS011;6790;49.520;8.504;2023-03-30T12:36:38;2.90;;;1.50;;
13435;SDS011;6790;49.520;8.504;2023-03-30T12:39:28;3.90;;;1.60;;
13435;SDS011;6790;49.520;8.504;2023-03-30T12:42:02;3.23;;;1.50;;
13435;SDS011;6790;49.520;8.504;2023-03-30T12:44:40;4.07;;;1.30;;
13435;SDS011;6790;49.520;8.504;2023-03-30T12:47:38;2.63;;;1.20;;
13435;SDS011;6790;49.520;8.504;2023-03-30T12:56:09;5.47;;;1.70;;
13435;SDS011;6790;49.520;8.504;2023-03-30T13:05:16;3.43;;;2.00;;
13435;SDS011;6790;49.520;8.504;2023-03-30T13:07:45;3.60;;;1.67;;
13435;SDS011;6790;49.520;8.504;2023-03-30T13:12:56;3.20;;;2.00;;
13435;SDS011;6790;49.520;8.504;2023-03-30T13:28:33;5.60;;;1.43;;
13435;SDS011;6790;49.520;8.504;2023-03-30T13:34:00;3.77;;;1.70;;
13435;SDS011;6790;49.520;8.504;2023-03-30T13:36:40;4.33;;;2.83;;
13435;SDS011;6790;49.520;8.504;2023-03-30T13:42:25;5.73;;;1.77;;
13435;SDS011;6790;49.520;8.504;2023-03-30T13:51:17;6.40;;;1.60;;
13435;SDS011;6790;49.520;8.504;2023-03-30T13:53:49;2.60;;;1.00;;
13435;SDS011;6790;49.520;8.504;2023-03-30T13:56:25;2.93;;;1.37;;
13435;SDS011;6790;49.520;8.504;2023-03-30T13:59:03;3.90;;;1.37;;
13435;SDS011;6790;49.520;8.504;2023-03-30T14:01:45;5.07;;;1.70;;
13435;SDS011;6790;49.520;8.504;2023-03-30T14:04:16;4.87;;;1.40;;
13435;SDS011;6790;49.520;8.504;2023-03-30T14:06:43;3.30;;;2.43;;
13435;SDS011;6790;49.520;8.504;2023-03-30T14:09:18;2.67;;;1.60;;
13435;SDS011;6790;49.520;8.504;2023-03-30T14:14:23;2.07;;;1.57;;
13435;SDS011;6790;49.520;8.504;2023-03-30T14:17:01;1.93;;;1.17;;
13435;SDS011;6790;49.520;8.504;2023-03-30T14:22:55;4.70;;;1.40;;
13435;SDS011;6790;49.520;8.504;2023-03-30T14:25:31;3.63;;;1.40;;
13435;SDS011;6790;49.520;8.504;2023-03-30T14:28:21;2.37;;;1.40;;
13435;SDS011;6790;49.520;8.504;2023-03-30T14:30:50;3.33;;;1.63;;
13435;SDS011;6790;49.520;8.504;2023-03-30T14:33:27;2.20;;;1.47;;
13435;SDS011;6790;49.520;8.504;2023-03-30T14:35:54;3.67;;;1.60;;
13435;SDS011;6790;49.520;8.504;2023-03-30T14:38:23;4.70;;;1.50;;
13435;SDS011;6790;49.520;8.504;2023-03-30T14:41:26;3.67;;;1.40;;
13435;SDS011;6790;49.520;8.504;2023-03-30T14:43:57;2.60;;;1.00;;
13435;SDS011;6790;49.520;8.504;2023-03-30T14:46:38;4.90;;;1.97;;
13435;SDS011;6790;49.520;8.504;2023-03-30T14:52:00;3.00;;;1.53;;
13435;SDS011;6790;49.520;8.504;2023-03-30T14:54:35;4.57;;;1.43;;
13435;SDS011;6790;49.520;8.504;2023-03-30T14:57:03;3.30;;;1.40;;
13435;SDS011;6790;49.520;8.504;2023-03-30T14:59:32;2.67;;;1.90;;
13435;SDS011;6790;49.520;8.504;2023-03-30T15:02:19;2.77;;;1.50;;
13435;SDS011;6790;49.520;8.504;2023-03-30T15:04:48;3.10;;;1.50;;
13435;SDS011;6790;49.520;8.504;2023-03-30T15:07:15;1.90;;;1.17;;
13435;SDS011;6790;49.520;8.504;2023-03-30T15:09:43;2.53;;;1.40;;
13435;SDS011;6790;49.520;8.504;2023-03-30T15:12:14;3.40;;;1.50;;
13435;SDS011;6790;49.520;8.504;2023-03-30T15:14:46;3.17;;;1.40;;
13435;SDS011;6790;49.520;8.504;2023-03-30T15:17:14;3.37;;;1.20;;
13435;SDS011;6790;49.520;8.504;2023-03-30T15:19:46;5.37;;;1.43;;
13435;SDS011;6790;49.520;8.504;2023-03-30T15:22:27;2.77;;;1.40;;
13435;SDS011;6790;49.520;8.504;2023-03-30T15:25:02;4.38;;;1.38;;
13435;SDS011;6790;49.520;8.504;2023-03-30T15:27:32;3.90;;;1.30;;
13435;SDS011;6790;49.520;8.504;2023-03-30T15:30:00;4.47;;;1.63;;
13435;SDS011;6790;49.520;8.504;2023-03-30T15:35:14;6.47;;;3.10;;
13435;SDS011;6790;49.520;8.504;2023-03-30T15:40:36;7.93;;;4.67;;
13435;SDS011;6790;49.520;8.504;2023-03-30T15:43:15;1.40;;;1.27;;
13435;SDS011;6790;49.520;8.504;2023-03-30T15:53:50;1.37;;;1.00;;
13435;SDS011;6790;49.520;8.504;2023-03-30T15:56:37;2.97;;;1.30;;
13435;SDS011;6790;49.520;8.504;2023-03-30T15:59:12;4.80;;;1.37;;
13435;SDS011;6790;49.520;8.504;2023-03-30T16:01:47;2.80;;;1.20;;
13435;SDS011;6790;49.520;8.504;2023-03-30T16:04:19;2.90;;;1.40;;
13435;SDS011;6790;49.520;8.504;2023-03-30T16:06:48;2.33;;;1.20;;
13435;SDS011;6790;49.520;8.504;2023-03-30T16:09:15;3.03;;;1.10;;
13435;SDS011;6790;49.520;8.504;2023-03-30T16:11:41;4.80;;;1.30;;
13435;SDS011;6790;49.520;8.504;2023-03-30T16:14:11;1.80;;;1.03;;
13435;SDS011;6790;49.520;8.504;2023-03-30T16:16:40;2.43;;;1.10;;
13435;SDS011;6790;49.520;8.504;2023-03-30T16:19:12;4.00;;;1.10;;
13435;SDS011;6790;49.520;8.504;2023-03-30T16:21:42;2.37;;;1.60;;
13435;SDS011;6790;49.520;8.504;2023-03-30T16:24:08;3.77;;;1.77;;
13435;SDS011;6790;49.520;8.504;2023-03-30T16:26:33;3.20;;;1.50;;
13435;SDS011;6790;49.520;8.504;2023-03-30T16:28:59;4.00;;;1.57;;
13435;SDS011;6790;49.520;8.504;2023-03-30T16:31:25;2.27;;;1.33;;
13435;SDS011;6790;49.520;8.504;2023-03-30T16:33:52;4.10;;;1.50;;
13435;SDS011;6790;49.520;8.504;2023-03-30T16:36:18;4.87;;;1.50;;
13435;SDS011;6790;49.520;8.504;2023-03-30T16:38:46;9.57;;;4.80;;
13435;SDS011;6790;49.520;8.504;2023-03-30T16:41:19;2.80;;;1.57;;
13435;SDS011;6790;49.520;8.504;2023-03-30T16:43:47;4.67;;;1.80;;
13435;SDS011;6790;49.520;8.504;2023-03-30T16:46:14;3.27;;;1.90;;
13435;SDS011;6790;49.520;8.504;2023-03-30T16:48:42;6.07;;;2.00;;
13435;SDS011;6790;49.520;8.504;2023-03-30T16:51:09;4.23;;;1.70;;
13435;SDS011;6790;49.520;8.504;2023-03-30T16:53:36;3.70;;;1.63;;
13435;SDS011;6790;49.520;8.504;2023-03-30T16:56:02;3.73;;;1.57;;
13435;SDS011;6790;49.520;8.504;2023-03-30T16:58:28;3.87;;;1.67;;
13435;SDS011;6790;49.520;8.504;2023-03-30T17:00:54;3.10;;;1.63;;
13435;SDS011;6790;49.520;8.504;2023-03-30T17:03:20;2.37;;;1.50;;
13435;SDS011;6790;49.520;8.504;2023-03-30T17:05:46;5.53;;;3.50;;
13435;SDS011;6790;49.520;8.504;2023-03-30T17:08:20;5.07;;;2.57;;
13435;SDS011;6790;49.520;8.504;2023-03-30T17:10:51;6.80;;;2.60;;
13435;SDS011;6790;49.520;8.504;2023-03-30T17:13:20;4.60;;;2.20;;
13435;SDS011;6790;49.520;8.504;2023-03-30T17:15:47;12.93;;;6.67;;
13435;SDS011;6790;49.520;8.504;2023-03-30T17:18:20;7.87;;;3.57;;
13435;SDS011;6790;49.520;8.504;2023-03-30T17:20:50;3.30;;;2.00;;
13435;SDS011;6790;49.520;8.504;2023-03-30T17:23:29;5.60;;;3.17;;
13435;SDS011;6790;49.520;8.504;2023-03-30T17:26:17;3.83;;;1.80;;
13435;SDS011;6790;49.520;8.504;2023-03-30T17:28:46;4.30;;;2.00;;
13435;SDS011;6790;49.520;8.504;2023-03-30T17:31:16;2.83;;;1.67;;
13435;SDS011;6790;49.520;8.504;2023-03-30T17:33:46;5.33;;;1.90;;
13435;SDS011;6790;49.520;8.504;2023-03-30T17:36:16;2.77;;;1.50;;
13435;SDS011;6790;49.520;8.504;2023-03-30T17:38:45;6.17;;;1.70;;
13435;SDS011;6790;49.520;8.504;2023-03-30T17:41:12;4.53;;;1.80;;
13435;SDS011;6790;49.520;8.504;2023-03-30T17:43:39;7.27;;;3.33;;
13435;SDS011;6790;49.520;8.504;2023-03-30T17:46:08;3.83;;;2.10;;
13435;SDS011;6790;49.520;8.504;2023-03-30T17:48:36;3.93;;;2.07;;
13435;SDS011;6790;49.520;8.504;2023-03-30T17:51:02;4.53;;;1.57;;
13435;SDS011;6790;49.520;8.504;2023-03-30T17:53:29;3.83;;;1.53;;
13435;SDS011;6790;49.520;8.504;2023-03-30T17:55:55;10.60;;;4.43;;
13435;SDS011;6790;49.520;8.504;2023-03-30T17:58:22;17.13;;;8.20;;
13435;SDS011;6790;49.520;8.504;2023-03-30T18:00:55;7.53;;;3.30;;
13435;SDS011;6790;49.520;8.504;2023-03-30T18:03:22;6.90;;;2.83;;
13435;SDS011;6790;49.520;8.504;2023-03-30T18:05:49;7.30;;;2.10;;
13435;SDS011;6790;49.520;8.504;2023-03-30T18:08:17;4.40;;;2.40;;
13435;SDS011;6790;49.520;8.504;2023-03-30T18:10:45;4.07;;;1.83;;
13435;SDS011;6790;49.520;8.504;2023-03-30T18:13:15;3.97;;;1.83;;
13435;SDS011;6790;49.520;8.504;2023-03-30T18:15:42;3.83;;;1.80;;
13435;SDS011;6790;49.520;8.504;2023-03-30T18:18:13;3.77;;;1.93;;
13435;SDS011;6790;49.520;8.504;2023-03-30T18:20:46;3.90;;;1.60;;
13435;SDS011;6790;49.520;8.504;2023-03-30T18:23:14;3.50;;;1.90;;
13435;SDS011;6790;49.520;8.504;2023-03-30T18:25:40;4.33;;;1.60;;